Time;durP1;ratioP1;P1;durP2;ratioP2;P2;SDS_P1;SDS_P2;PMS_P1;PMS_P2;Temp;Humidity;BMP_temperature;BMP_pressure;BME280_temperature;BME280_humidity;BME280_pressure;Samples;Min_cycle;Max_cycle;Signal;HPM_P1;HPM_P2
2021/04/13 05:30:58;;;;;;;14.68;7.85;;;;;;;3.67;73.13;100969.16;1764070;77;27257;-62
2021/04/13 05:33:32;;;;;;;15.18;7.25;;;;;;;3.68;73.31;100984.17;1722324;81;25844;-62
2021/04/13 05:36:43;;;;;;;13.22;6.83;;;;;;;3.65;73.25;100975.30;1667935;84;25591;-63
2021/04/13 05:39:12;;;;;;;13.68;8.13;;;;;;;3.65;73.54;100994.02;1734257;82;28196;-64
2021/04/13 05:41:38;;;;;;;10.10;6.47;;;;;;;3.64;73.49;101002.29;1691126;84;25620;-62
2021/04/13 05:44:06;;;;;;;11.48;6.95;;;;;;;3.65;73.61;101014.62;1740415;82;25357;-63
2021/04/13 05:47:13;;;;;;;13.03;7.22;;;;;;;3.65;73.69;101014.62;1690957;84;25578;-65
2021/04/13 05:49:56;;;;;;;9.65;7.03;;;;;;;3.69;74.13;101015.20;1740639;82;25545;-63
2021/04/13 05:52:29;;;;;;;12.03;6.35;;;;;;;3.77;74.28;101011.31;1691162;84;27135;-66
2021/04/13 05:54:56;;;;;;;12.53;7.40;;;;;;;3.81;74.43;101011.63;1598521;89;25656;-62
2021/04/13 05:57:28;;;;;;;12.05;7.08;;;;;;;3.84;74.37;101011.14;1667551;84;26126;-63
2021/04/13 05:59:57;;;;;;;13.95;6.83;;;;;;;3.88;74.44;101016.28;1690549;84;25728;-65
2021/04/13 06:02:25;;;;;;;13.13;7.55;;;;;;;3.94;74.57;101007.27;1690840;84;25421;-63
2021/04/13 06:04:55;;;;;;;11.78;7.15;;;;;;;3.97;74.47;101004.61;1690579;84;25911;-63
2021/04/13 06:07:22;;;;;;;10.85;6.35;;;;;;;3.98;74.51;101000.89;1690438;84;25682;-64
2021/04/13 06:09:50;;;;;;;13.32;6.28;;;;;;;3.97;74.25;100998.75;1683136;84;25361;-62
2021/04/13 06:12:17;;;;;;;11.60;6.67;;;;;;;3.97;74.43;101000.09;1651297;86;25671;-63
2021/04/13 06:14:43;;;;;;;10.55;6.62;;;;;;;3.98;74.47;100999.02;1646060;85;25615;-64
2021/04/13 06:17:11;;;;;;;8.28;6.67;;;;;;;3.99;74.65;100999.31;1661922;86;25907;-63
2021/04/13 06:19:38;;;;;;;16.80;7.90;;;;;;;3.99;74.53;101001.19;1660381;84;25353;-64
2021/04/13 06:22:05;;;;;;;12.88;6.28;;;;;;;3.99;74.63;101001.19;1656868;84;25521;-63
2021/04/13 06:24:32;;;;;;;14.15;7.25;;;;;;;4.01;74.68;100999.06;1654604;84;25585;-64
2021/04/13 06:26:59;;;;;;;13.58;6.37;;;;;;;4.00;74.71;101003.62;1648508;87;25235;-65
2021/04/13 06:29:26;;;;;;;11.63;5.80;;;;;;;4.00;74.50;101004.95;1648400;87;25803;-65
2021/04/13 06:31:53;;;;;;;9.00;5.35;;;;;;;4.00;74.53;101010.31;1626099;86;25425;-65
2021/04/13 06:34:20;;;;;;;11.73;6.25;;;;;;;3.97;74.59;101009.46;1648415;87;25527;-64
2021/04/13 06:36:47;;;;;;;11.40;5.95;;;;;;;3.97;74.57;101006.78;1648379;87;25471;-66
2021/04/13 06:39:14;;;;;;;9.40;5.33;;;;;;;3.97;74.72;101008.62;1648453;87;25484;-63
2021/04/13 06:41:58;;;;;;;10.85;5.50;;;;;;;3.96;74.71;101015.86;1648542;87;25798;-64
2021/04/13 06:45:04;;;;;;;11.38;5.67;;;;;;;4.06;75.02;101021.89;1849698;76;34557;-65
2021/04/13 06:47:55;;;;;;;7.72;5.10;;;;;;;3.98;74.79;101019.63;1815118;78;25326;-63
2021/04/13 06:51:02;;;;;;;13.18;5.67;;;;;;;3.96;74.80;101031.92;1769944;81;28072;-64
2021/04/13 06:53:46;;;;;;;8.98;5.55;;;;;;;3.92;74.90;101034.28;1770063;81;25373;-64
2021/04/13 06:56:30;;;;;;;9.58;5.10;;;;;;;3.90;74.85;101035.06;1770116;81;25531;-65
2021/04/13 06:59:37;;;;;;;11.05;5.83;;;;;;;3.88;74.91;101034.51;1770084;81;25474;-64
2021/04/13 07:02:15;;;;;;;12.53;5.25;;;;;;;3.87;75.06;101032.88;1770105;81;25479;-65
2021/04/13 07:05:18;;;;;;;12.00;5.37;;;;;;;3.82;74.81;101038.16;1781754;79;25763;-65
2021/04/13 07:08:43;;;;;;;9.13;5.17;;;;;;;3.80;75.01;101038.93;1796867;78;25595;-65
2021/04/13 07:11:33;;;;;;;11.12;5.72;;;;;;;3.87;75.28;101044.92;1847414;76;34737;-65
2021/04/13 07:14:06;;;;;;;13.35;5.95;;;;;;;3.83;75.56;101041.63;1811878;77;25603;-65
2021/04/13 07:16:39;;;;;;;10.63;5.95;;;;;;;3.82;75.42;101044.84;1808154;78;25957;-65
2021/04/13 07:19:14;;;;;;;7.50;5.55;;;;;;;3.83;75.52;101051.00;1786228;80;25429;-64
2021/04/13 07:22:10;;;;;;;7.55;4.95;;;;;;;3.85;75.56;101047.03;1787207;80;25455;-65
2021/04/13 07:24:54;;;;;;;9.83;5.55;;;;;;;3.88;75.68;101045.72;1796993;77;25426;-66
2021/04/13 07:27:34;;;;;;;11.45;5.75;;;;;;;3.89;75.76;101048.16;1842773;77;25393;-64
2021/04/13 07:30:18;;;;;;;9.68;5.65;;;;;;;3.91;75.70;101050.05;1820367;77;26852;-65
2021/04/13 07:32:45;;;;;;;11.63;5.67;;;;;;;3.93;76.07;101047.96;1850652;77;25716;-65
2021/04/13 07:35:18;;;;;;;11.12;6.42;;;;;;;3.92;75.82;101053.02;1820632;77;25508;-66
2021/04/13 07:37:51;;;;;;;15.00;7.22;;;;;;;3.96;75.88;101049.86;1779138;80;25415;-65
2021/04/13 07:40:32;;;;;;;12.10;5.90;;;;;;;3.96;75.73;101056.02;1811081;79;25284;-66
2021/04/13 07:43:07;;;;;;;10.10;5.33;;;;;;;3.97;75.85;101053.63;1779137;80;25827;-65
2021/04/13 07:46:02;;;;;;;10.50;5.03;;;;;;;3.99;75.92;101060.08;1777676;80;25502;-66
2021/04/13 07:48:56;;;;;;;14.58;5.37;;;;;;;3.97;75.82;101067.02;1779150;80;25294;-66
2021/04/13 07:51:42;;;;;;;9.08;5.10;;;;;;;3.93;75.64;101065.87;1779079;80;25319;-64
2021/04/13 07:54:35;;;;;;;11.48;6.10;;;;;;;3.92;75.92;101070.42;1778953;80;25332;-64
2021/04/13 07:57:16;;;;;;;9.35;5.65;;;;;;;3.95;76.09;101069.13;1779094;80;25715;-64
2021/04/13 08:00:09;;;;;;;9.65;5.25;;;;;;;3.95;75.97;101073.15;1750401;80;25285;-64
2021/04/13 08:02:36;;;;;;;7.33;5.47;;;;;;;3.95;75.91;101081.69;1778969;80;25369;-63
2021/04/13 08:05:08;;;;;;;7.85;5.47;;;;;;;3.93;76.00;101077.91;1778996;80;25449;-63
2021/04/13 08:07:39;;;;;;;9.65;5.22;;;;;;;3.90;75.94;101072.53;1779176;80;25488;-64
2021/04/13 08:10:31;;;;;;;9.23;5.22;;;;;;;3.84;75.98;101078.86;1780032;80;25698;-63
2021/04/13 08:13:02;;;;;;;7.75;4.87;;;;;;;3.77;75.63;101084.91;1780605;80;25818;-63
2021/04/13 08:15:52;;;;;;;9.48;5.10;;;;;;;3.72;75.86;101088.30;1782129;80;25307;-63
2021/04/13 08:18:36;;;;;;;8.23;4.60;;;;;;;3.73;76.46;101095.29;1781984;80;25327;-64
2021/04/13 08:21:26;;;;;;;4.50;4.10;;;;;;;3.69;76.04;101096.81;1781940;80;25342;-63
2021/04/13 08:23:54;;;;;;;8.28;4.50;;;;;;;3.65;76.51;101101.04;1781523;80;26029;-63
2021/04/13 08:26:35;;;;;;;6.15;4.50;;;;;;;3.62;76.01;101102.86;1781392;80;25299;-63
2021/04/13 08:29:28;;;;;;;8.45;3.77;;;;;;;3.63;76.32;101104.49;1781298;80;25441;-64
2021/04/13 08:35:30;;;;;;;5.03;3.95;;;;;;;3.68;76.41;101109.13;1849615;76;34891;-66
2021/04/13 08:38:04;;;;;;;4.92;3.55;;;;;;;3.59;76.31;101102.00;1811807;78;25713;-63
2021/04/13 08:40:37;;;;;;;4.22;3.40;;;;;;;3.55;76.42;101111.58;1819695;78;25685;-65
2021/04/13 08:43:18;;;;;;;2.70;2.27;;;;;;;3.56;76.56;101113.20;1818789;78;25422;-64
2021/04/13 08:46:06;;;;;;;3.98;2.90;;;;;;;3.50;76.12;101108.81;1819652;78;25275;-64
2021/04/13 08:49:01;;;;;;;3.95;2.60;;;;;;;3.48;76.43;101116.27;1819559;78;25245;-64
2021/04/13 08:51:42;;;;;;;4.37;3.15;;;;;;;3.49;76.58;101117.38;1819676;78;25436;-63
2021/04/13 08:54:33;;;;;;;4.30;3.50;;;;;;;3.53;76.78;101117.16;1819751;78;25688;-64
2021/04/13 08:57:08;;;;;;;3.50;2.80;;;;;;;3.49;76.44;101119.22;1819502;78;25307;-65
2021/04/13 08:59:40;;;;;;;3.55;2.67;;;;;;;3.43;76.26;101122.34;1825404;77;25426;-64
2021/04/13 09:02:27;;;;;;;3.00;2.70;;;;;;;3.38;76.63;101124.13;1822279;77;25450;-64
2021/04/13 09:05:23;;;;;;;3.17;2.70;;;;;;;3.33;76.72;101124.30;1805444;77;25458;-63
2021/04/13 09:07:57;;;;;;;2.75;2.45;;;;;;;3.34;76.81;101123.80;1817949;78;25705;-63
2021/04/13 09:10:42;;;;;;;3.15;2.22;;;;;;;3.37;76.86;101123.28;1818332;79;25075;-64
2021/04/13 09:13:17;;;;;;;4.58;2.30;;;;;;;3.38;76.92;101132.14;1817576;78;25386;-63
2021/04/13 09:15:57;;;;;;;3.20;2.30;;;;;;;3.40;76.80;101122.81;1817598;79;25444;-62
2021/04/13 09:18:47;;;;;;;2.62;1.85;;;;;;;3.40;77.38;101123.34;1817715;79;25449;-62
2021/04/13 09:21:25;;;;;;;3.15;2.27;;;;;;;3.41;77.14;101127.12;1817626;79;28009;-63
2021/04/13 09:24:20;;;;;;;3.35;2.35;;;;;;;3.45;77.46;101121.56;1817573;79;25442;-60
2021/04/13 09:27:22;;;;;;;4.60;2.87;;;;;;;3.55;77.92;101124.95;1817677;79;25544;-62
2021/04/13 09:29:54;;;;;;;3.70;2.77;;;;;;;3.63;77.62;101126.44;1817592;78;25369;-64
2021/04/13 09:32:30;;;;;;;3.50;2.27;;;;;;;3.67;77.48;101121.67;1817767;79;25275;-63
2021/04/13 09:35:43;;;;;;;4.05;2.37;;;;;;;3.70;77.36;101133.77;1813534;77;26514;-61
2021/04/13 09:38:41;;;;;;;3.95;2.27;;;;;;;3.71;77.79;101124.67;1812945;79;25261;-64
2021/04/13 09:41:48;;;;;;;2.30;2.10;;;;;;;3.74;77.43;101135.70;1813024;79;25485;-62
2021/04/13 09:44:56;;;;;;;2.45;2.25;;;;;;;3.78;77.43;101127.19;1812987;79;25411;-64
2021/04/13 09:48:18;;;;;;;2.77;1.72;;;;;;;3.85;77.74;101128.66;1812588;79;25444;-63
2021/04/13 09:51:21;;;;;;;4.20;2.00;;;;;;;3.90;77.54;101135.97;1812449;79;26599;-63
2021/04/13 09:53:59;;;;;;;2.80;2.00;;;;;;;3.95;77.53;101127.19;1812451;79;25354;-63
2021/04/13 09:56:54;;;;;;;3.55;1.90;;;;;;;3.99;77.45;101128.34;1812547;79;25486;-62
2021/04/13 10:00:05;;;;;;;2.92;1.98;;;;;;;4.01;77.39;101128.91;1828463;77;25428;-62
2021/04/13 10:03:02;;;;;;;2.72;2.00;;;;;;;4.05;77.54;101124.16;1853808;77;25355;-61
2021/04/13 10:05:31;;;;;;;4.15;1.70;;;;;;;4.09;77.33;101131.98;1853946;77;25962;-62
2021/04/13 10:08:13;;;;;;;2.65;1.90;;;;;;;4.14;77.32;101126.41;1853770;77;25487;-62
2021/04/13 10:11:13;;;;;;;2.05;1.80;;;;;;;4.16;77.23;101121.64;1853456;77;25483;-61
2021/04/13 10:14:21;;;;;;;5.60;2.17;;;;;;;4.16;76.93;101130.47;1728460;82;25478;-61
2021/04/13 10:17:35;;;;;;;5.37;2.33;;;;;;;4.23;76.88;101137.00;1847777;76;34940;-62
2021/04/13 10:20:29;;;;;;;4.78;2.05;;;;;;;4.15;76.92;101130.72;1743946;81;25381;-63
2021/04/13 10:23:46;;;;;;;4.03;1.70;;;;;;;4.13;77.00;101125.60;1743984;82;25706;-62
2021/04/13 10:26:56;;;;;;;10.35;5.42;;;;;;;4.10;76.78;101131.44;1743158;82;25689;-63
2021/04/13 10:29:37;;;;;;;2.20;1.60;;;;;;;4.13;77.06;101124.27;1744120;81;25492;-61
2021/04/13 10:32:29;;;;;;;4.70;1.57;;;;;;;4.16;76.96;101122.98;1743646;82;25580;-62
2021/04/13 10:35:33;;;;;;;3.83;1.65;;;;;;;4.18;76.97;101128.35;1751203;80;25603;-64
2021/04/13 10:38:44;;;;;;;3.30;2.17;;;;;;;4.19;77.16;101124.63;1739314;81;25865;-61
2021/04/13 10:41:54;;;;;;;2.40;1.77;;;;;;;4.30;76.91;101122.36;1889128;76;34543;-60
2021/04/13 10:44:51;;;;;;;4.80;2.10;;;;;;;4.23;76.91;101117.72;1845839;76;25523;-63
2021/04/13 10:48:07;;;;;;;4.75;2.10;;;;;;;4.31;77.20;101120.52;1789802;79;25731;-63
2021/04/13 10:51:21;;;;;;;3.02;2.20;;;;;;;4.39;77.30;101114.73;1762538;81;25285;-63
2021/04/13 10:54:15;;;;;;;4.12;2.45;;;;;;;4.55;78.00;101114.94;1762638;81;25385;-62
2021/04/13 10:57:11;;;;;;;5.42;3.12;;;;;;;4.64;77.27;101120.14;1762549;81;25526;-61
2021/04/13 10:59:58;;;;;;;6.47;3.22;;;;;;;4.67;77.15;101113.75;1762752;81;25437;-63
2021/04/13 11:02:41;;;;;;;4.08;2.58;;;;;;;4.76;77.42;101116.80;1809165;78;26679;-63
2021/04/13 11:05:28;;;;;;;3.90;2.33;;;;;;;4.92;77.57;101121.00;1818659;78;25619;-63
2021/04/13 11:08:27;;;;;;;4.47;2.22;;;;;;;4.96;76.91;101120.25;1817643;79;25259;-64
2021/04/13 11:11:11;;;;;;;3.52;2.52;;;;;;;5.03;76.80;101120.06;1819606;78;25091;-63
2021/04/13 11:13:57;;;;;;;5.03;2.70;;;;;;;5.10;76.76;101122.02;1819107;78;25454;-64
2021/04/13 11:16:53;;;;;;;5.72;3.08;;;;;;;5.18;76.82;101126.93;1757001;81;25726;-63
2021/04/13 11:19:40;;;;;;;4.83;2.98;;;;;;;5.22;76.60;101123.21;1820396;78;25730;-63
2021/04/13 11:22:43;;;;;;;5.33;3.08;;;;;;;5.34;76.97;101125.20;1789545;80;25533;-62
2021/04/13 11:25:28;;;;;;;7.33;3.60;;;;;;;5.40;76.78;101122.06;1793080;78;26163;-63
2021/04/13 11:28:42;;;;;;;5.37;3.05;;;;;;;5.48;76.68;101130.17;1781331;78;25589;-63
2021/04/13 11:31:44;;;;;;;14.05;6.67;;;;;;;5.51;76.25;101128.33;1813012;78;27122;-63
2021/04/13 11:34:25;;;;;;;8.08;3.58;;;;;;;5.52;76.19;101130.76;1797830;78;25592;-63
2021/04/13 11:38:56;;;;;;;6.40;4.20;;;;;;;5.66;76.32;101134.37;1873310;76;28088;-61
2021/04/13 11:42:30;;;;;;;9.93;3.15;;;;;;;5.71;75.84;101139.23;1780883;79;34957;-62
2021/04/13 11:45:53;;;;;;;6.55;3.12;;;;;;;5.65;75.64;101132.73;1753143;81;25605;-67
2021/04/13 11:48:48;;;;;;;5.47;3.50;;;;;;;5.66;75.56;101131.69;1730751;81;25734;-63
2021/04/13 11:51:29;;;;;;;6.62;3.77;;;;;;;5.65;75.67;101124.69;1740635;81;25471;-63
2021/04/13 11:53:58;;;;;;;7.05;3.98;;;;;;;5.70;75.84;101124.73;1752930;81;25462;-63
2021/04/13 11:56:32;;;;;;;7.08;4.40;;;;;;;5.76;76.03;101123.72;1723342;81;25391;-65
2021/04/13 11:59:20;;;;;;;3.55;2.80;;;;;;;5.82;76.11;101125.36;1752100;81;25318;-63
2021/04/13 12:01:58;;;;;;;5.80;2.95;;;;;;;5.86;76.00;101122.45;1752893;81;25707;-63
2021/04/13 12:04:46;;;;;;;5.20;3.20;;;;;;;5.86;75.18;101117.09;1723806;81;25834;-63
2021/04/13 12:07:17;;;;;;;3.98;3.12;;;;;;;5.88;75.38;101115.48;1752091;81;25569;-62
2021/04/13 12:09:59;;;;;;;4.33;2.98;;;;;;;5.95;75.57;101108.81;1744435;81;25581;-64
2021/04/13 12:12:38;;;;;;;2.77;2.50;;;;;;;6.00;75.22;101110.77;1692037;84;25505;-64
2021/04/13 12:15:22;;;;;;;4.25;3.08;;;;;;;6.05;75.20;101113.48;1700884;84;25795;-62
2021/04/13 12:17:56;;;;;;;4.53;3.10;;;;;;;6.08;74.98;101107.60;1757188;81;25386;-63
2021/04/13 12:20:34;;;;;;;4.08;2.72;;;;;;;6.11;74.83;101106.27;1691990;84;25558;-63
2021/04/13 12:23:13;;;;;;;7.97;3.47;;;;;;;6.12;74.47;101107.34;1695741;84;25637;-65
2021/04/13 12:25:46;;;;;;;4.00;2.87;;;;;;;6.14;74.31;101110.58;1681830;85;25278;-64
2021/04/13 12:28:20;;;;;;;4.45;2.70;;;;;;;6.17;74.26;101110.61;1681247;85;25832;-64
2021/04/13 12:30:56;;;;;;;3.40;2.95;;;;;;;6.23;74.51;101114.95;1666536;85;25391;-64
2021/04/13 12:33:33;;;;;;;4.10;2.67;;;;;;;6.29;74.24;101109.07;1683380;85;25539;-62
2021/04/13 12:36:08;;;;;;;4.67;2.90;;;;;;;6.35;74.24;101105.33;1683353;85;25473;-63
2021/04/13 12:38:51;;;;;;;3.90;2.87;;;;;;;6.39;73.79;101104.30;1698366;84;25484;-63
2021/04/13 12:41:34;;;;;;;6.33;3.62;;;;;;;6.36;73.44;101105.61;1687876;84;25746;-64
2021/04/13 12:44:15;;;;;;;7.20;3.40;;;;;;;6.35;73.31;101106.67;1682307;84;25893;-63
2021/04/13 12:46:46;;;;;;;6.80;3.30;;;;;;;6.40;73.41;101104.01;1674778;85;25375;-62
2021/04/13 12:49:18;;;;;;;4.45;3.25;;;;;;;6.34;72.60;101105.06;1701575;84;25171;-63
2021/04/13 12:52:07;;;;;;;7.03;3.50;;;;;;;6.34;72.90;101103.18;1758775;81;25503;-63
2021/04/13 12:54:44;;;;;;;4.65;3.02;;;;;;;6.40;73.15;101104.01;1758545;81;25932;-63
2021/04/13 12:57:21;;;;;;;9.65;6.20;;;;;;;6.47;73.12;101098.40;1758428;81;25347;-63
2021/04/13 12:59:51;;;;;;;6.72;4.70;;;;;;;6.51;73.21;101100.31;1758325;81;25567;-64
2021/04/13 13:02:31;;;;;;;16.10;8.68;;;;;;;6.57;72.82;101101.13;1758399;81;25301;-63
2021/04/13 13:04:58;;;;;;;6.87;3.40;;;;;;;6.60;72.87;101094.44;1758633;81;25456;-63
2021/04/13 13:09:40;;;;;;;8.55;3.52;;;;;;;6.76;72.69;101096.64;1869598;74;34687;-63
2021/04/13 13:12:20;;;;;;;3.72;3.10;;;;;;;6.74;72.74;101088.84;1843377;75;25539;-63
2021/04/13 13:14:51;;;;;;;5.75;3.08;;;;;;;6.77;72.10;101088.31;1825390;78;25707;-64
2021/04/13 13:17:29;;;;;;;10.95;6.17;;;;;;;6.78;71.89;101090.48;1826714;78;25259;-64
2021/04/13 13:19:55;;;;;;;4.30;3.00;;;;;;;6.80;71.85;101090.48;1826718;78;25618;-64
2021/04/13 13:22:29;;;;;;;5.15;3.10;;;;;;;6.79;70.94;101089.40;1840105;76;25614;-63
2021/04/13 13:25:17;;;;;;;6.35;3.12;;;;;;;6.76;71.00;101092.61;1857372;77;25515;-64
2021/04/13 13:27:44;;;;;;;3.40;2.85;;;;;;;6.76;70.95;101088.58;1857521;77;25765;-64
2021/04/13 13:30:15;;;;;;;6.87;3.40;;;;;;;6.79;71.00;101090.20;1857207;77;25593;-64
2021/04/13 13:32:42;;;;;;;5.95;2.70;;;;;;;6.80;70.63;101093.17;1857482;77;25435;-63
2021/04/13 13:35:17;;;;;;;5.85;4.22;;;;;;;6.80;70.26;101089.69;1857427;77;25246;-63
2021/04/13 13:37:49;;;;;;;10.05;5.72;;;;;;;6.77;70.17;101088.31;1826476;77;25352;-63
2021/04/13 13:40:24;;;;;;;6.50;3.20;;;;;;;6.78;70.12;101087.80;1857303;77;25999;-62
2021/04/13 13:42:54;;;;;;;4.72;3.08;;;;;;;6.80;70.02;101090.48;1855193;77;25462;-63
2021/04/13 13:45:30;;;;;;;;;;;;;;;6.83;69.92;101083.23;1860159;77;25250;-63
2021/04/13 13:47:57;;;;;;;6.47;3.22;;;;;;;6.85;69.71;101090.50;1857446;77;25324;-64
2021/04/13 13:50:35;;;;;;;6.35;2.95;;;;;;;6.89;70.25;101088.88;1857191;77;25571;-63
2021/04/13 13:53:04;;;;;;;7.33;3.35;;;;;;;6.97;70.13;101087.58;1857539;77;25754;-64
2021/04/13 13:55:35;;;;;;;8.23;3.40;;;;;;;7.01;69.96;101081.92;1857386;77;25511;-63
2021/04/13 13:58:22;;;;;;;7.50;4.92;;;;;;;7.04;69.25;101076.56;1845770;76;25164;-62
2021/04/13 14:01:08;;;;;;;10.53;5.53;;;;;;;7.03;69.00;101074.94;1772610;81;25454;-62
2021/04/13 14:03:49;;;;;;;8.08;3.08;;;;;;;7.05;68.71;101082.23;1772842;79;26181;-62
2021/04/13 14:06:30;;;;;;;6.60;3.05;;;;;;;7.06;68.38;101085.17;1809380;78;26601;-63
2021/04/13 14:09:16;;;;;;;4.05;2.67;;;;;;;7.06;68.47;101078.45;1797812;78;26202;-63
2021/04/13 14:11:44;;;;;;;7.05;3.00;;;;;;;7.13;68.59;101089.75;1788233;80;25659;-63
2021/04/13 14:14:16;;;;;;;3.80;2.33;;;;;;;7.11;67.83;101080.60;1831200;77;25723;-63
2021/04/13 14:16:54;;;;;;;5.78;2.92;;;;;;;7.08;67.41;101079.81;1823787;78;25535;-63
2021/04/13 14:19:29;;;;;;;5.15;2.87;;;;;;;7.07;67.18;101070.11;1827722;78;26348;-62
2021/04/13 14:22:06;;;;;;;6.37;3.25;;;;;;;7.05;66.90;101076.30;1827310;78;25322;-63
2021/04/13 14:24:40;;;;;;;4.95;2.72;;;;;;;7.03;66.85;101067.70;1827657;78;25378;-63
2021/04/13 14:30:10;;;;;;;7.37;3.05;;;;;;;7.05;66.40;101062.85;1839888;76;34547;-63
2021/04/13 14:32:38;;;;;;;5.70;2.80;;;;;;;7.02;66.68;101063.92;1811396;78;25441;-64
2021/04/13 14:35:08;;;;;;;4.17;2.55;;;;;;;7.06;66.38;101069.83;1793268;77;25859;-65
2021/04/13 14:37:41;;;;;;;7.78;3.10;;;;;;;7.08;66.39;101062.33;1811204;78;25545;-66
2021/04/13 14:40:19;;;;;;;7.92;3.65;;;;;;;7.10;66.74;101069.59;1819648;78;25210;-65
2021/04/13 14:42:47;;;;;;;4.50;3.22;;;;;;;7.15;66.86;101067.45;1814695;78;25502;-65
2021/04/13 14:45:18;;;;;;;6.72;3.40;;;;;;;7.19;66.50;101063.69;1819760;78;25517;-65
2021/04/13 14:47:46;;;;;;;6.37;3.65;;;;;;;7.19;66.12;101063.14;1819652;78;26665;-64
2021/04/13 14:50:17;;;;;;;7.85;3.98;;;;;;;7.20;65.98;101054.00;1787626;78;25273;-65
2021/04/13 14:52:49;;;;;;;6.67;4.00;;;;;;;7.23;65.87;101056.14;1819756;78;25329;-65
2021/04/13 14:55:21;;;;;;;8.40;5.00;;;;;;;7.27;66.11;101049.68;1819558;78;25398;-65
2021/04/13 14:57:56;;;;;;;7.53;4.87;;;;;;;7.31;66.11;101054.81;1819389;78;25559;-66
2021/04/13 15:00:25;;;;;;;6.37;4.10;;;;;;;7.37;66.17;101047.02;1819694;78;25730;-65
2021/04/13 15:02:52;;;;;;;6.37;3.45;;;;;;;7.37;65.51;101046.19;1819744;78;25446;-64
2021/04/13 15:05:20;;;;;;;5.72;3.45;;;;;;;7.39;65.68;101037.30;1819442;78;25245;-64
2021/04/13 15:07:51;;;;;;;6.12;5.12;;;;;;;7.45;65.44;101041.63;1819513;78;25302;-65
2021/04/13 15:10:23;;;;;;;13.35;9.13;;;;;;;7.46;65.21;101035.17;1819557;78;25469;-63
2021/04/13 15:12:49;;;;;;;9.50;6.78;;;;;;;7.47;65.06;101030.88;1819309;78;25759;-64
2021/04/13 15:15:18;;;;;;;8.20;5.72;;;;;;;7.49;65.05;101035.95;1819516;78;25444;-64
2021/04/13 15:17:45;;;;;;;13.70;5.70;;;;;;;7.53;64.76;101033.56;1819666;78;25518;-64
2021/04/13 15:20:17;;;;;;;10.85;5.47;;;;;;;7.52;64.59;101036.77;1819295;78;25271;-66
2021/04/13 15:22:44;;;;;;;9.70;3.83;;;;;;;7.52;64.62;101024.66;1820461;78;25520;-65
2021/04/13 15:25:15;;;;;;;10.18;3.52;;;;;;;7.54;64.57;101029.77;1820798;78;25685;-65
2021/04/13 15:27:45;;;;;;;7.15;3.65;;;;;;;7.57;64.58;101023.85;1809388;78;25659;-66
2021/04/13 15:30:14;;;;;;;9.65;4.42;;;;;;;7.60;64.68;101012.00;1810278;77;25762;-65
2021/04/13 15:32:44;;;;;;;7.03;4.00;;;;;;;7.64;64.63;101012.27;1807592;78;25622;-65
2021/04/13 15:35:23;;;;;;;;;;;;;;;7.67;64.57;101000.41;1812182;78;25604;-64
2021/04/13 15:37:55;;;;;;;10.15;5.15;;;;;;;7.71;64.20;100994.48;1793392;78;25919;-64
2021/04/13 15:40:36;;;;;;;13.65;4.67;;;;;;;7.75;64.03;100995.02;1839160;76;34595;-64
2021/04/13 15:43:20;;;;;;;8.58;4.60;;;;;;;7.71;64.14;100991.79;1748395;81;25570;-65
2021/04/13 15:46:08;;;;;;;9.80;4.75;;;;;;;7.72;64.21;100991.52;1755253;81;25868;-64
2021/04/13 15:48:43;;;;;;;9.17;4.73;;;;;;;7.72;64.18;100987.48;1728351;81;25366;-64
2021/04/13 15:51:14;;;;;;;8.05;4.40;;;;;;;7.76;64.30;100985.84;1751812;80;25542;-64
2021/04/13 15:53:42;;;;;;;6.28;4.08;;;;;;;7.79;63.93;100984.50;1763091;80;25396;-65
2021/04/13 15:56:10;;;;;;;10.10;4.70;;;;;;;7.80;63.77;100976.70;1752463;81;25518;-65
2021/04/13 15:58:41;;;;;;;8.23;4.75;;;;;;;7.80;63.54;100977.50;1752686;81;25952;-64
2021/04/13 16:01:08;;;;;;;7.78;4.20;;;;;;;7.79;63.48;100979.92;1732191;81;25461;-64
2021/04/13 16:03:35;;;;;;;9.95;4.50;;;;;;;7.79;63.26;100982.61;1774663;80;25292;-64
2021/04/13 16:06:02;;;;;;;14.43;5.30;;;;;;;7.76;63.19;100972.92;1726058;83;25310;-65
2021/04/13 16:08:29;;;;;;;12.33;7.12;;;;;;;7.72;62.93;100976.70;1766870;80;25422;-77
2021/04/13 16:10:56;;;;;;;11.78;5.62;;;;;;;7.68;62.75;100977.00;1754544;80;26637;-65
2021/04/13 16:13:23;;;;;;;9.10;4.15;;;;;;;7.66;62.67;100969.19;1767176;80;25508;-65
2021/04/13 16:15:51;;;;;;;7.72;4.28;;;;;;;7.62;62.43;100968.66;1725655;83;25484;-65
2021/04/13 16:18:21;;;;;;;9.73;5.10;;;;;;;7.57;62.58;100968.11;1725703;83;25290;-65
2021/04/13 16:20:49;;;;;;;11.87;5.53;;;;;;;7.55;62.52;100966.78;1726407;83;25470;-62
2021/04/13 16:23:16;;;;;;;11.53;5.42;;;;;;;7.50;62.49;100963.55;1734321;82;26708;-64
2021/04/13 16:25:42;;;;;;;8.48;5.25;;;;;;;7.49;62.41;100968.66;1734094;82;25616;-65
2021/04/13 16:28:10;;;;;;;9.50;5.17;;;;;;;7.45;62.16;100979.16;1734397;82;25434;-65
2021/04/13 16:30:38;;;;;;;9.93;5.25;;;;;;;7.43;62.25;100979.19;1734405;82;25335;-64
2021/04/13 16:33:06;;;;;;;10.93;5.40;;;;;;;7.41;62.40;100967.34;1734223;82;25482;-64
2021/04/13 16:35:34;;;;;;;6.78;4.90;;;;;;;7.39;62.36;100953.87;1734567;82;25799;-64
2021/04/13 16:38:01;;;;;;;8.03;5.75;;;;;;;7.36;62.34;100957.12;1734396;82;25468;-64
2021/04/13 16:40:48;;;;;;;7.03;4.85;;;;;;;7.33;62.45;100959.01;1734295;81;25283;-66
2021/04/13 16:43:35;;;;;;;11.75;5.37;;;;;;;7.30;62.57;100948.23;1669400;84;25624;-65
2021/04/13 16:46:10;;;;;;;9.80;5.12;;;;;;;7.28;62.47;100950.39;1692508;84;25459;-65
2021/04/13 16:49:00;;;;;;;8.98;5.08;;;;;;;7.22;62.27;100948.25;1691950;84;25900;-65
2021/04/13 16:51:55;;;;;;;10.93;5.47;;;;;;;7.23;62.16;100955.23;1889129;76;34598;-64
2021/04/13 16:54:21;;;;;;;10.82;5.78;;;;;;;7.13;62.19;100953.09;1859867;77;25550;-65
2021/04/13 16:56:49;;;;;;;11.85;5.85;;;;;;;7.10;62.19;100953.11;1859709;77;26129;-64
2021/04/13 16:59:23;;;;;;;10.25;6.25;;;;;;;7.05;62.08;100949.88;1859775;77;25679;-65
2021/04/13 17:02:21;;;;;;;13.48;6.83;;;;;;;7.01;62.08;100946.63;1860063;77;25511;-65
2021/04/13 17:05:09;;;;;;;14.70;8.33;;;;;;;6.96;62.12;100940.70;1823265;77;25355;-64
2021/04/13 17:08:12;;;;;;;11.00;6.70;;;;;;;6.90;61.86;100943.14;1859951;77;25302;-64
2021/04/13 17:10:44;;;;;;;10.05;6.53;;;;;;;6.82;61.70;100940.44;1859657;77;25699;-64
2021/04/13 17:13:31;;;;;;;15.20;6.70;;;;;;;6.74;61.95;100939.61;1859757;77;25423;-65
2021/04/13 17:16:07;;;;;;;10.23;5.80;;;;;;;6.68;62.04;100942.05;1859673;77;25408;-65
2021/04/13 17:18:36;;;;;;;14.78;6.40;;;;;;;6.59;62.24;100939.08;1859156;77;25275;-65
2021/04/13 17:21:04;;;;;;;16.82;10.40;;;;;;;6.54;62.45;100943.09;1860081;77;32289;-63
2021/04/13 17:23:38;;;;;;;55.48;26.73;;;;;;;6.50;62.51;100944.17;1859979;77;26591;-65
2021/04/13 17:26:05;;;;;;;34.33;18.98;;;;;;;6.45;62.82;100947.36;1826722;77;25503;-63
2021/04/13 17:28:43;;;;;;;20.40;9.90;;;;;;;6.41;63.01;100947.09;1819128;77;25624;-63
2021/04/13 17:31:25;;;;;;;14.10;7.45;;;;;;;6.35;62.72;100942.76;1860069;77;25215;-65
2021/04/13 17:33:51;;;;;;;11.50;6.22;;;;;;;6.28;62.92;100941.69;1859749;77;25312;-64
2021/04/13 17:36:26;;;;;;;12.93;6.92;;;;;;;6.23;63.13;100942.19;1859914;77;25863;-64
2021/04/13 17:39:13;;;;;;;14.10;8.30;;;;;;;6.17;63.15;100947.55;1859957;77;25518;-65
2021/04/13 17:41:46;;;;;;;15.72;8.95;;;;;;;6.12;63.31;100946.73;1838174;76;25511;-65
2021/04/13 17:44:31;;;;;;;13.32;7.37;;;;;;;6.07;63.37;100949.39;1839373;75;25341;-66
2021/04/13 17:47:12;;;;;;;13.70;6.70;;;;;;;6.04;63.85;100952.59;1817220;77;25597;-67
2021/04/13 17:49:42;;;;;;;16.37;6.72;;;;;;;5.96;64.03;100948.55;1856578;77;25917;-66
2021/04/13 17:52:12;;;;;;;11.73;7.10;;;;;;;5.91;64.29;100933.73;1833581;78;25555;-64
2021/04/13 17:54:39;;;;;;;46.48;30.37;;;;;;;5.85;64.80;100931.53;1802986;78;25591;-65
2021/04/13 17:57:14;;;;;;;23.22;14.23;;;;;;;5.82;64.86;100928.56;1833072;78;25613;-65
2021/04/13 17:59:42;;;;;;;25.35;12.30;;;;;;;5.79;65.04;100933.94;1825183;78;25704;-65
2021/04/13 18:02:39;;;;;;;15.17;7.50;;;;;;;5.76;65.21;100935.25;1818881;78;25697;-64
2021/04/13 18:05:20;;;;;;;13.53;7.75;;;;;;;5.73;65.46;100930.95;1818196;78;25115;-64
2021/04/13 18:07:55;;;;;;;58.60;26.35;;;;;;;5.69;65.37;100934.69;1819926;78;25261;-65
2021/04/13 18:10:26;;;;;;;55.20;27.55;;;;;;;5.65;65.46;100933.58;1823501;78;25513;-64
2021/04/13 18:13:01;;;;;;;21.07;12.03;;;;;;;5.61;65.55;100944.02;1831715;78;25480;-64